createdAt,value
2023-01-02T00:00:58.751Z,11.00
2023-01-02T00:05:51.802Z,11.00
2023-01-02T00:10:42.527Z,11.00
2023-01-02T00:15:33.268Z,10.99
2023-01-02T00:20:23.833Z,10.99
2023-01-02T00:25:17.265Z,10.99
2023-01-02T00:30:11.011Z,10.99
2023-01-02T00:35:01.516Z,11.01
2023-01-02T00:39:51.915Z,11.01
2023-01-02T00:44:44.505Z,11.04
2023-01-02T00:49:34.773Z,11.05
2023-01-02T00:54:24.844Z,11.08
2023-01-02T00:59:16.043Z,11.09
2023-01-02T01:04:09.075Z,11.09
2023-01-02T01:08:59.539Z,11.14
2023-01-02T01:13:50.023Z,11.16
2023-01-02T01:18:41.318Z,11.21
2023-01-02T01:23:34.639Z,11.23
2023-01-02T01:28:25.350Z,11.25
2023-01-02T01:33:17.916Z,11.25
2023-01-02T01:38:11.535Z,11.25
2023-01-02T01:43:04.971Z,11.25
2023-01-02T01:47:57.434Z,11.25
2023-01-02T01:52:49.404Z,11.28
2023-01-02T01:57:46.002Z,11.27
2023-01-02T02:02:39.927Z,11.26
2023-01-02T02:07:32.076Z,11.32
2023-01-02T02:12:28.230Z,11.38
2023-01-02T02:17:23.307Z,11.51
2023-01-02T02:22:24.749Z,11.63
2023-01-02T02:27:23.400Z,11.78
2023-01-02T02:32:22.895Z,11.85
2023-01-02T02:37:17.786Z,11.90
2023-01-02T02:42:13.299Z,11.93
2023-01-02T02:47:07.709Z,11.97
2023-01-02T02:52:08.167Z,12.02
2023-01-02T02:57:00.003Z,12.08
2023-01-02T03:01:51.109Z,12.10
2023-01-02T03:07:02.380Z,12.13
2023-01-02T03:11:59.293Z,12.21
2023-01-02T03:16:50.533Z,12.20
2023-01-02T03:21:43.411Z,12.27
2023-01-02T03:26:35.020Z,12.30
2023-01-02T03:31:32.207Z,12.33
2023-01-02T03:36:26.068Z,12.34
2023-01-02T03:41:29.914Z,12.33
2023-01-02T03:46:23.390Z,12.35
2023-01-02T03:51:18.362Z,12.29
2023-01-02T03:56:13.739Z,12.28
2023-01-02T04:01:09.615Z,12.23
2023-01-02T04:06:09.661Z,12.21
2023-01-02T04:11:05.419Z,12.17
2023-01-02T04:16:01.609Z,12.14
2023-01-02T04:20:57.191Z,12.16
2023-01-02T04:25:52.500Z,12.15
2023-01-02T04:30:56.327Z,12.13
2023-01-02T04:35:46.048Z,12.11
2023-01-02T04:40:38.887Z,12.05
2023-01-02T04:45:37.402Z,12.06
2023-01-02T04:50:31.325Z,12.05
2023-01-02T04:55:22.982Z,11.99
2023-01-02T05:00:14.463Z,11.98
2023-01-02T05:05:06.163Z,11.98
2023-01-02T05:09:59.749Z,11.78
2023-01-02T05:14:52.048Z,11.48
2023-01-02T05:19:47.935Z,11.15
2023-01-02T05:24:42.241Z,10.92
2023-01-02T05:29:35.388Z,10.74
2023-01-02T05:34:26.045Z,10.62
2023-01-02T05:39:25.537Z,10.53
2023-01-02T05:44:21.159Z,10.44
2023-01-02T05:49:14.620Z,10.36
2023-01-02T05:54:05.478Z,10.26
2023-01-02T05:58:58.149Z,10.19
2023-01-02T06:03:50.908Z,10.10
2023-01-02T06:08:48.165Z,10.04
2023-01-02T06:13:42.009Z,9.99
2023-01-02T06:18:33.693Z,9.95
2023-01-02T06:23:25.683Z,9.91
2023-01-02T06:28:20.596Z,9.88
2023-01-02T06:33:15.449Z,9.81
2023-01-02T06:38:06.659Z,9.74
2023-01-02T06:43:00.289Z,9.70
2023-01-02T06:48:01.997Z,9.64
2023-01-02T06:52:52.417Z,9.58
2023-01-02T06:57:48.110Z,9.52
2023-01-02T07:02:45.597Z,9.52
2023-01-02T07:07:43.896Z,9.47
2023-01-02T07:12:36.169Z,9.43
2023-01-02T07:17:29.996Z,9.42
2023-01-02T07:22:26.873Z,9.40
2023-01-02T07:27:22.208Z,9.37
2023-01-02T07:32:15.483Z,9.36
2023-01-02T07:37:05.813Z,9.36
2023-01-02T07:42:00.670Z,9.32
2023-01-02T07:46:57.075Z,9.29
2023-01-02T07:51:50.297Z,9.23
2023-01-02T07:56:46.977Z,9.21
2023-01-02T08:01:39.134Z,9.18
2023-01-02T08:06:36.928Z,9.18
2023-01-02T08:11:29.043Z,9.17
2023-01-02T08:16:21.749Z,9.18
2023-01-02T08:21:13.004Z,9.16
2023-01-02T08:26:21.804Z,9.17
2023-01-02T08:31:13.939Z,9.15
2023-01-02T08:36:12.955Z,9.13
2023-01-02T08:41:02.865Z,9.16
2023-01-02T08:45:56.436Z,9.14
2023-01-02T08:50:46.464Z,9.12
2023-01-02T08:55:47.335Z,9.16
2023-01-02T09:00:45.290Z,9.15
2023-01-02T09:05:40.623Z,9.14
2023-01-02T09:10:33.331Z,9.17
2023-01-02T09:15:27.930Z,9.17
2023-01-02T09:20:19.240Z,9.17
2023-01-02T09:25:23.724Z,9.18
2023-01-02T09:30:16.742Z,9.17
2023-01-02T09:35:09.231Z,9.14
2023-01-02T09:40:06.221Z,9.11
2023-01-02T09:45:07.987Z,9.13
2023-01-02T09:50:03.982Z,9.13
2023-01-02T09:54:54.537Z,9.16
2023-01-02T09:59:51.785Z,9.17
2023-01-02T10:04:55.940Z,9.16
2023-01-02T10:09:49.777Z,9.22
2023-01-02T10:14:55.935Z,9.30
2023-01-02T10:19:55.319Z,9.39
2023-01-02T10:24:51.241Z,9.49
2023-01-02T10:29:47.799Z,9.53
2023-01-02T10:34:43.903Z,9.57
2023-01-02T10:39:37.111Z,9.59
2023-01-02T10:44:30.039Z,9.64
2023-01-02T10:49:21.856Z,9.63
2023-01-02T10:54:13.535Z,9.63
2023-01-02T10:59:09.244Z,9.61
2023-01-02T11:04:36.567Z,9.61
2023-01-02T11:09:28.458Z,9.60
2023-01-02T11:14:24.605Z,9.60
2023-01-02T11:19:29.787Z,9.61
2023-01-02T11:24:27.847Z,9.64
2023-01-02T11:29:30.373Z,9.70
2023-01-02T11:34:25.621Z,9.71
2023-01-02T11:39:24.573Z,9.75
2023-01-02T11:44:32.449Z,9.79
2023-01-02T11:49:28.621Z,9.77
2023-01-02T11:54:32.615Z,9.79
2023-01-02T11:59:40.233Z,9.73
2023-01-02T12:04:48.430Z,9.70
2023-01-02T12:09:53.993Z,9.67
2023-01-02T12:14:54.807Z,9.65
2023-01-02T12:20:23.099Z,9.62
2023-01-02T12:25:27.343Z,9.62
2023-01-02T12:30:22.646Z,9.61
2023-01-02T12:35:45.576Z,9.61
2023-01-02T12:40:43.621Z,9.56
2023-01-02T12:45:42.093Z,9.54
2023-01-02T12:50:55.160Z,9.52
2023-01-02T12:55:58.398Z,9.47
2023-01-02T13:01:11.330Z,9.47
2023-01-02T13:06:43.982Z,9.48
2023-01-02T13:11:32.458Z,9.46
2023-01-02T13:16:25.531Z,9.40
2023-01-02T13:21:30.001Z,9.42
2023-01-02T13:26:27.291Z,9.41
2023-01-02T13:31:45.970Z,9.42
2023-01-02T13:36:41.073Z,9.44
2023-01-02T13:42:00.844Z,9.46
2023-01-02T13:47:09.795Z,9.46
2023-01-02T13:52:06.548Z,9.47
2023-01-02T13:57:13.396Z,9.51
2023-01-02T14:02:29.708Z,9.42
2023-01-02T14:07:49.676Z,9.42
2023-01-02T14:12:48.439Z,9.41
2023-01-02T14:17:58.392Z,9.38
2023-01-02T14:28:00.647Z,9.38
2023-01-02T14:32:56.833Z,9.35
2023-01-02T14:37:49.533Z,9.32
2023-01-02T14:42:58.030Z,9.29
2023-01-02T14:47:59.964Z,9.26
2023-01-02T14:52:56.995Z,9.30
2023-01-02T14:57:53.176Z,9.27
2023-01-02T15:02:48.045Z,9.24
2023-01-02T15:07:50.802Z,9.20
2023-01-02T15:12:59.321Z,9.11
2023-01-02T15:17:53.306Z,9.10
2023-01-02T15:23:00.360Z,9.05
2023-01-02T15:27:58.242Z,9.01
2023-01-02T15:32:53.925Z,9.00
2023-01-02T15:43:45.685Z,8.97
2023-01-02T15:48:38.874Z,8.93
2023-01-02T15:53:35.996Z,8.93
2023-01-02T15:58:31.800Z,8.94
2023-01-02T16:04:00.487Z,8.92
2023-01-02T16:09:02.411Z,8.95
2023-01-02T16:14:12.227Z,8.99
2023-01-02T16:19:06.678Z,8.94
2023-01-02T16:24:09.702Z,8.76
2023-01-02T16:29:03.936Z,8.58
2023-01-02T16:34:23.367Z,8.41
2023-01-02T16:39:47.337Z,8.35
2023-01-02T16:44:42.132Z,8.25
2023-01-02T16:49:38.314Z,8.26
2023-01-02T16:54:52.284Z,8.24
2023-01-02T16:59:51.161Z,8.18
2023-01-02T17:04:41.569Z,8.10
2023-01-02T17:09:52.532Z,8.06
2023-01-02T17:14:48.684Z,8.00
2023-01-02T17:19:45.065Z,7.97
2023-01-02T17:24:39.550Z,7.87
2023-01-02T17:29:36.296Z,7.79
2023-01-02T17:34:35.315Z,7.74
2023-01-02T17:39:38.711Z,7.77
2023-01-02T17:44:37.449Z,7.74
2023-01-02T17:49:29.598Z,7.62
2023-01-02T17:54:20.967Z,7.65
2023-01-02T17:59:20.092Z,7.55
2023-01-02T18:04:16.235Z,7.55
2023-01-02T18:09:12.226Z,7.49
2023-01-02T18:14:05.394Z,7.46
2023-01-02T18:18:57.047Z,7.43
2023-01-02T18:23:54.813Z,7.39
2023-01-02T18:29:09.630Z,7.32
2023-01-02T18:34:04.134Z,7.25
2023-01-02T18:39:08.768Z,7.20
2023-01-02T18:44:01.953Z,7.16
2023-01-02T18:48:54.980Z,7.12
2023-01-02T18:54:03.586Z,7.08
2023-01-02T18:58:55.758Z,7.04
2023-01-02T19:03:50.697Z,6.96
2023-01-02T19:08:47.361Z,6.90
2023-01-02T19:13:42.851Z,6.84
2023-01-02T19:18:39.449Z,6.80
2023-01-02T19:23:34.684Z,6.76
2023-01-02T19:28:37.449Z,6.70
2023-01-02T19:33:44.686Z,6.65
2023-01-02T19:38:35.388Z,6.60
2023-01-02T19:43:27.615Z,6.54
2023-01-02T19:48:24.771Z,6.51
2023-01-02T19:53:25.195Z,6.47
2023-01-02T19:58:16.107Z,6.39
2023-01-02T20:03:09.717Z,6.34
2023-01-02T20:08:05.378Z,6.27
2023-01-02T20:13:10.972Z,6.21
2023-01-02T20:18:09.061Z,6.23
2023-01-02T20:23:01.452Z,6.20
2023-01-02T20:27:55.423Z,6.19
2023-01-02T20:32:53.472Z,6.17
2023-01-02T20:37:48.632Z,6.11
2023-01-02T20:42:42.145Z,6.09
2023-01-02T20:47:37.018Z,6.05
2023-01-02T20:52:33.740Z,6.06
2023-01-02T20:57:26.612Z,6.04
2023-01-02T21:02:22.566Z,6.02
2023-01-02T21:07:15.244Z,5.99
2023-01-02T21:12:30.969Z,5.94
2023-01-02T21:17:26.598Z,5.92
2023-01-02T21:22:20.905Z,5.89
2023-01-02T21:27:14.122Z,5.85
2023-01-02T21:32:09.397Z,5.83
2023-01-02T21:37:03.491Z,5.80
2023-01-02T21:42:06.382Z,5.78
2023-01-02T21:47:01.455Z,5.76
2023-01-02T21:51:54.805Z,5.75
2023-01-02T21:56:44.560Z,5.74
2023-01-02T22:01:35.843Z,5.73
2023-01-02T22:06:35.350Z,5.75
2023-01-02T22:11:39.357Z,5.80
2023-01-02T22:16:35.262Z,5.82
2023-01-02T22:21:34.722Z,5.86
2023-01-02T22:26:30.033Z,5.88
2023-01-02T22:31:25.973Z,5.94
2023-01-02T22:36:17.582Z,5.96
2023-01-02T22:41:15.033Z,5.96
2023-01-02T22:46:09.531Z,5.96
2023-01-02T22:51:11.415Z,5.97
2023-01-02T22:56:05.152Z,5.97
2023-01-02T23:01:00.785Z,5.97
2023-01-02T23:05:53.494Z,5.94
2023-01-02T23:10:44.610Z,5.91
2023-01-02T23:16:03.581Z,5.86
2023-01-02T23:21:07.640Z,5.78
2023-01-02T23:26:10.317Z,5.72
2023-01-02T23:31:04.917Z,5.70
2023-01-02T23:35:57.739Z,5.72
2023-01-02T23:40:48.562Z,5.70
2023-01-02T23:45:38.504Z,5.71
2023-01-02T23:50:30.401Z,5.74
2023-01-02T23:55:26.459Z,5.77
